Time;durP1;ratioP1;P1;durP2;ratioP2;P2;SDS_P1;SDS_P2;PMS_P1;PMS_P2;Temp;Humidity;BMP_temperature;BMP_pressure;BME280_temperature;BME280_humidity;BME280_pressure;Samples;Min_cycle;Max_cycle;Signal;HPM_P1;HPM_P2
2022/06/04 00:02:22;;;;;;;;;;;;;;;13.12;100.00;102251.81;4994555;28;20012;-28
2022/06/04 00:04:51;;;;;;;;;;;;;;;13.08;100.00;102245.94;4993730;28;19925;-35
2022/06/04 00:07:19;;;;;;;;;;;;;;;13.07;100.00;102237.81;4994083;28;19925;-33
2022/06/04 00:17:57;;;;;;;;;;;;;;;12.98;100.00;102233.91;4996112;28;19921;-36
2022/06/04 00:20:27;;;;;;;;;;;;;;;12.95;100.00;102240.91;4995515;28;19921;-37
2022/06/04 00:22:58;;;;;;;;;;;;;;;12.93;100.00;102237.56;4995944;28;19922;-34
2022/06/04 00:25:26;;;;;;;;;;;;;;;12.94;100.00;102235.59;4996054;28;19929;-33
2022/06/04 00:27:56;;;;;;;;;;;;;;;12.92;100.00;102230.28;4995132;28;19922;-37
2022/06/04 00:30:24;;;;;;;;;;;;;;;12.89;100.00;102214.00;4995917;28;19932;-34
2022/06/04 00:32:52;;;;;;;;;;;;;;;12.88;100.00;102222.69;4995330;28;19922;-28
2022/06/04 00:35:20;;;;;;;;;;;;;;;12.87;100.00;102219.06;4996036;28;19967;-38
2022/06/04 00:37:50;;;;;;;;;;;;;;;12.85;100.00;102215.69;4995697;28;19928;-33
2022/06/04 00:40:23;;;;;;;;;;;;;;;12.82;100.00;102221.00;4995049;28;19922;-29
2022/06/04 00:42:51;;;;;;;;;;;;;;;12.79;100.00;102225.22;4995511;28;20430;-35
2022/06/04 00:45:43;;;;;;;;;;;;;;;12.76;100.00;102226.66;4995603;28;20344;-32
2022/06/04 00:48:11;;;;;;;;;;;;;;;12.75;100.00;102224.97;4957635;28;20006;-34
2022/06/04 00:50:40;;;;;;;;;;;;;;;12.74;100.00;102228.88;4995424;28;20384;-39
2022/06/04 00:53:10;;;;;;;;;;;;;;;12.73;100.00;102223.56;4995310;28;20292;-32
2022/06/04 00:55:43;;;;;;;;;;;;;;;12.74;100.00;102217.69;4995077;28;19933;-33
2022/06/04 00:58:17;;;;;;;;;;;;;;;12.73;100.00;102221.59;4995677;28;20352;-36
2022/06/04 01:00:48;;;;;;;;;;;;;;;12.71;100.00;102223.84;4995465;28;19926;-38
2022/06/04 01:03:37;;;;;;;;;;;;;;;12.69;100.00;102220.47;4994718;28;19929;-30
2022/06/04 01:06:17;;;;;;;;;;;;;;;12.68;100.00;102230.00;4995557;28;19925;-36
2022/06/04 01:08:57;;;;;;;;;;;;;;;12.67;100.00;102224.66;4993455;28;19921;-33
2022/06/04 01:11:33;;;;;;;;;;;;;;;12.66;100.00;102231.38;4995417;28;19921;-37
2022/06/04 01:14:12;;;;;;;;;;;;;;;12.66;100.00;102234.19;4993961;28;20359;-31
2022/06/04 01:16:46;;;;;;;;;;;;;;;12.66;100.00;102237.84;4994684;28;20013;-34
2022/06/04 01:19:27;;;;;;;;;;;;;;;12.65;100.00;102241.75;4995188;28;19976;-30
2022/06/04 01:22:01;;;;;;;;;;;;;;;12.63;100.00;102245.94;4995124;28;19926;-39
2022/06/04 01:24:47;;;;;;;;;;;;;;;12.62;100.00;102247.06;4994884;28;19964;-35
2022/06/04 01:27:18;;;;;;;;;;;;;;;12.61;100.00;102256.59;4994918;28;20471;-37
2022/06/04 01:29:52;;;;;;;;;;;;;;;12.61;100.00;102245.38;4994164;28;20465;-30
2022/06/04 01:32:23;;;;;;;;;;;;;;;12.61;100.00;102245.38;4994951;28;20016;-36
2022/06/04 01:34:53;;;;;;;;;;;;;;;12.59;100.00;102242.06;4994711;28;20360;-37
2022/06/04 01:37:23;;;;;;;;;;;;;;;12.58;100.00;102229.16;4994162;28;20307;-29
2022/06/04 01:42:43;;;;;;;;;;;;;;;12.57;100.00;102233.91;4994726;28;19968;-30
2022/06/04 01:45:14;;;;;;;;;;;;;;;12.54;100.00;102234.47;4993854;28;19949;-31
2022/06/04 01:47:43;;;;;;;;;;;;;;;12.54;100.00;102233.63;4994826;28;19922;-31
2022/06/04 01:50:13;;;;;;;;;;;;;;;12.54;100.00;102234.47;4994008;28;19928;-31
2022/06/04 01:52:43;;;;;;;;;;;;;;;12.55;100.00;102236.16;4994526;28;19921;-32
2022/06/04 01:55:12;;;;;;;;;;;;;;;12.56;100.00;102239.81;4994488;28;19922;-33
2022/06/04 01:57:43;;;;;;;;;;;;;;;12.54;100.00;102242.88;4993482;28;19928;-35
2022/06/04 02:00:13;;;;;;;;;;;;;;;12.53;100.00;102235.59;4994658;28;20338;-31
2022/06/04 02:02:44;;;;;;;;;;;;;;;12.51;100.00;102232.22;4994462;28;19922;-36
2022/06/04 02:05:13;;;;;;;;;;;;;;;12.51;100.00;102228.59;4993475;28;19932;-35
2022/06/04 02:07:43;;;;;;;;;;;;;;;12.49;100.00;102223.25;4994214;28;19921;-33
2022/06/04 02:10:13;;;;;;;;;;;;;;;12.51;100.00;102229.44;4994066;28;19921;-39
2022/06/04 02:12:44;;;;;;;;;;;;;;;12.51;100.00;102232.22;4993525;28;20024;-34
2022/06/04 02:15:13;;;;;;;;;;;;;;;12.50;100.00;102233.34;4994215;28;19957;-33
2022/06/04 02:17:43;;;;;;;;;;;;;;;12.49;100.00;102228.03;4993998;28;20016;-38
2022/06/04 02:20:12;;;;;;;;;;;;;;;12.46;100.00;102251.81;4992687;28;19921;-36
2022/06/04 02:22:40;;;;;;;;;;;;;;;12.44;100.00;102240.06;4993766;28;19936;-33
2022/06/04 02:25:09;;;;;;;;;;;;;;;12.42;100.00;102254.31;4993787;28;19926;-30
2022/06/04 02:27:37;;;;;;;;;;;;;;;12.42;100.00;102256.28;4993008;28;20028;-34
2022/06/04 02:30:08;;;;;;;;;;;;;;;12.40;100.00;102264.97;4993603;28;19922;-37
2022/06/04 02:32:40;;;;;;;;;;;;;;;12.38;100.00;102269.19;4993077;28;19928;-35
2022/06/04 02:35:10;;;;;;;;;;;;;;;12.35;100.00;102259.38;4993538;28;19932;-37
2022/06/04 02:37:42;;;;;;;;;;;;;;;12.34;100.00;102259.66;4993662;28;19922;-33
2022/06/04 02:40:13;;;;;;;;;;;;;;;12.31;100.00;102269.44;4992762;28;19925;-30
2022/06/04 02:42:44;;;;;;;;;;;;;;;12.30;100.00;102273.34;4993790;28;19928;-35
2022/06/04 02:45:16;;;;;;;;;;;;;;;12.28;100.00;102264.38;4993498;28;19921;-33
2022/06/04 02:47:46;;;;;;;;;;;;;;;12.25;100.00;102273.31;4992613;28;19928;-31
2022/06/04 02:50:17;;;;;;;;;;;;;;;12.23;100.00;102266.31;4993635;28;19929;-33
2022/06/04 02:52:46;;;;;;;;;;;;;;;12.22;100.00;102265.47;4993346;28;19965;-34
2022/06/04 02:55:16;;;;;;;;;;;;;;;12.22;100.00;102276.66;4992493;28;19922;-30
2022/06/04 02:57:46;;;;;;;;;;;;;;;12.22;100.00;102271.06;4993479;28;19928;-33
2022/06/04 03:00:17;;;;;;;;;;;;;;;12.22;100.00;102256.25;4992962;28;19921;-36
2022/06/04 03:02:45;;;;;;;;;;;;;;;12.22;100.00;102254.28;4992335;28;19953;-36
2022/06/04 03:05:15;;;;;;;;;;;;;;;12.22;100.00;102250.66;4992926;28;19922;-35
2022/06/04 03:07:43;;;;;;;;;;;;;;;12.24;100.00;102260.44;4992326;28;20019;-38
2022/06/04 03:10:14;;;;;;;;;;;;;;;12.26;100.00;102254.56;4992795;28;19932;-31
2022/06/04 03:12:42;;;;;;;;;;;;;;;12.27;100.00;102248.72;4992903;28;20039;-35
2022/06/04 03:15:10;;;;;;;;;;;;;;;12.30;100.00;102250.13;4992242;28;19921;-33
2022/06/04 03:17:40;;;;;;;;;;;;;;;12.30;100.00;102250.13;4992765;28;19947;-31
2022/06/04 03:20:09;;;;;;;;;;;;;;;12.30;100.00;102256.56;4992858;28;19932;-34
2022/06/04 03:22:36;;;;;;;;;;;;;;;12.30;100.00;102256.56;4992082;28;20012;-37
2022/06/04 03:25:05;;;;;;;;;;;;;;;12.29;100.00;102246.47;4992635;28;19957;-35
2022/06/04 03:27:33;;;;;;;;;;;;;;;12.29;100.00;102248.44;4992585;28;19922;-38
2022/06/04 03:30:00;;;;;;;;;;;;;;;12.25;100.00;102239.75;4992017;28;19928;-32
2022/06/04 03:32:28;;;;;;;;;;;;;;;12.26;100.00;102237.78;4990375;28;20379;-34
2022/06/04 03:34:57;;;;;;;;;;;;;;;12.23;100.00;102238.34;4991153;28;19922;-31
2022/06/04 03:37:25;;;;;;;;;;;;;;;12.23;100.00;102244.78;4990793;28;19932;-29
2022/06/04 03:39:53;;;;;;;;;;;;;;;12.24;100.00;102240.84;4991362;28;20024;-40
2022/06/04 03:42:20;;;;;;;;;;;;;;;12.24;100.00;102254.00;4991769;28;19922;-31
2022/06/04 03:44:48;;;;;;;;;;;;;;;12.25;100.00;102253.75;4990753;28;20130;-31
2022/06/04 03:47:17;;;;;;;;;;;;;;;12.25;100.00;102258.50;4992457;28;20364;-29
2022/06/04 03:49:44;;;;;;;;;;;;;;;12.27;100.00;102254.31;4991826;28;19921;-35
2022/06/04 03:52:14;;;;;;;;;;;;;;;12.28;100.00;102253.19;4992403;28;19976;-37
2022/06/04 03:54:54;;;;;;;;;;;;;;;12.30;100.00;102255.72;4992294;28;19968;-29
2022/06/04 03:57:42;;;;;;;;;;;;;;;12.33;100.00;102249.56;4991677;28;20394;-36
2022/06/04 04:00:12;;;;;;;;;;;;;;;12.36;100.00;102251.81;4992380;28;19926;-34
2022/06/04 04:02:40;;;;;;;;;;;;;;;12.37;100.00;102257.13;4992304;28;19977;-28
2022/06/04 04:05:09;;;;;;;;;;;;;;;12.38;100.00;102258.81;4991453;28;19926;-32
2022/06/04 04:07:38;;;;;;;;;;;;;;;12.41;100.00;102265.78;4992471;28;19928;-33
2022/06/04 04:10:07;;;;;;;;;;;;;;;12.42;100.00;102264.69;4992281;28;19932;-35
2022/06/04 04:12:34;;;;;;;;;;;;;;;12.44;100.00;102254.06;4991687;28;19929;-31
2022/06/04 04:15:02;;;;;;;;;;;;;;;12.46;100.00;102256.56;4992366;28;19936;-30
2022/06/04 04:17:30;;;;;;;;;;;;;;;12.49;100.00;102242.03;4991910;28;20021;-35
2022/06/04 04:19:58;;;;;;;;;;;;;;;12.50;100.00;102268.91;4991590;28;19928;-33
2022/06/04 04:22:25;;;;;;;;;;;;;;;12.52;100.00;102269.47;4992295;28;19930;-35
2022/06/04 04:24:55;;;;;;;;;;;;;;;12.55;100.00;102280.97;4991464;28;19928;-34
2022/06/04 04:27:22;;;;;;;;;;;;;;;12.55;100.00;102277.31;4992243;28;19944;-30
2022/06/04 04:29:51;;;;;;;;;;;;;;;12.57;100.00;102289.09;4991987;28;19925;-36
2022/06/04 04:32:19;;;;;;;;;;;;;;;12.55;100.00;102289.38;4991472;28;19926;-35
2022/06/04 04:34:47;;;;;;;;;;;;;;;12.53;100.00;102286.00;4992174;28;19925;-35
2022/06/04 04:37:14;;;;;;;;;;;;;;;12.53;100.00;102297.19;4992183;28;20008;-35
2022/06/04 04:39:42;;;;;;;;;;;;;;;12.55;100.00;102303.38;4990706;28;20362;-33
2022/06/04 04:42:11;;;;;;;;;;;;;;;12.56;100.00;102307.84;4992146;28;19925;-31
2022/06/04 04:44:38;;;;;;;;;;;;;;;12.60;100.00;102296.91;4994873;28;19926;-35
2022/06/04 04:47:06;;;;;;;;;;;;;;;12.62;100.00;102306.72;4994946;28;20295;-32
2022/06/04 04:49:34;;;;;;;;;;;;;;;12.63;100.00;102300.00;4995784;28;20016;-35
2022/06/04 04:52:01;;;;;;;;;;;;;;;12.66;100.00;102304.19;4995663;28;20291;-28
2022/06/04 04:54:29;;;;;;;;;;;;;;;12.64;100.00;102289.63;4994755;28;19936;-34
2022/06/04 04:56:57;;;;;;;;;;;;;;;12.66;100.00;102287.41;4995289;28;19926;-35
2022/06/04 04:59:26;;;;;;;;;;;;;;;12.69;100.00;102293.28;4995233;28;20020;-32
2022/06/04 05:01:54;;;;;;;;;;;;;;;12.74;100.00;102287.69;4994524;28;20076;-35
2022/06/04 05:04:22;;;;;;;;;;;;;;;12.75;100.00;102291.34;4994348;28;20366;-31
2022/06/04 05:06:49;;;;;;;;;;;;;;;12.77;100.00;102292.75;4994076;28;19926;-31
2022/06/04 05:09:17;;;;;;;;;;;;;;;12.82;100.00;102294.69;4993282;28;19929;-32
2022/06/04 05:11:45;;;;;;;;;;;;;;;12.85;100.00;102294.13;4994333;28;19925;-33
2022/06/04 05:14:18;;;;;;;;;;;;;;;12.89;100.00;102298.06;4992528;28;20011;-34
2022/06/04 05:16:47;;;;;;;;;;;;;;;12.96;100.00;102301.44;4993529;28;19926;-37
2022/06/04 05:19:14;;;;;;;;;;;;;;;13.02;100.00;102296.66;4993923;28;20405;-36
2022/06/04 05:21:43;;;;;;;;;;;;;;;13.06;100.00;102298.63;4992859;28;19925;-35
2022/06/04 05:24:16;;;;;;;;;;;;;;;13.07;100.00;102291.06;4993892;28;19922;-30
2022/06/04 05:26:43;;;;;;;;;;;;;;;13.13;100.00;102297.50;4994530;28;20016;-36
2022/06/04 05:29:11;;;;;;;;;;;;;;;13.13;100.00;102292.75;4993352;28;20607;-34
2022/06/04 05:31:40;;;;;;;;;;;;;;;13.17;100.00;102298.66;4994232;28;19936;-29
2022/06/04 05:34:09;;;;;;;;;;;;;;;13.16;100.00;102297.81;4993594;28;20395;-32
2022/06/04 05:36:37;;;;;;;;;;;;;;;13.19;100.00;102310.44;4992895;28;19939;-29
2022/06/04 05:39:06;;;;;;;;;;;;;;;13.20;100.00;102307.31;4993637;28;19921;-37
2022/06/04 05:41:34;;;;;;;;;;;;;;;13.27;100.00;102316.31;4992920;28;20358;-34
2022/06/04 05:44:01;;;;;;;;;;;;;;;13.33;100.00;102305.94;4993024;28;20016;-33
2022/06/04 05:46:29;;;;;;;;;;;;;;;13.35;100.00;102301.72;4993213;28;19928;-37
2022/06/04 05:48:59;;;;;;;;;;;;;;;13.40;100.00;102298.03;4993311;28;20395;-31
2022/06/04 05:51:30;;;;;;;;;;;;;;;13.48;100.00;102311.50;4992581;28;19928;-32
2022/06/04 05:53:58;;;;;;;;;;;;;;;13.54;100.00;102316.00;4992353;28;20056;-39
2022/06/04 05:56:34;;;;;;;;;;;;;;;13.62;100.00;102306.13;4992831;28;20458;-31
2022/06/04 05:59:03;;;;;;;;;;;;;;;13.67;100.00;102308.94;4993503;28;20020;-35
2022/06/04 06:01:32;;;;;;;;;;;;;;;13.70;100.00;102302.75;4993029;28;19929;-29
2022/06/04 06:04:00;;;;;;;;;;;;;;;13.78;100.00;102300.22;4991379;28;20008;-32
2022/06/04 06:06:30;;;;;;;;;;;;;;;13.85;100.00;102299.06;4992647;28;20335;-37
2022/06/04 06:09:00;;;;;;;;;;;;;;;13.88;100.00;102299.31;4993280;28;19922;-36
2022/06/04 06:11:28;;;;;;;;;;;;;;;13.87;100.00;102297.66;4991988;28;20331;-34
2022/06/04 06:13:56;;;;;;;;;;;;;;;13.83;100.00;102296.53;4992909;28;19928;-35
2022/06/04 06:16:25;;;;;;;;;;;;;;;13.86;100.00;102300.75;4992919;28;19921;-35
2022/06/04 06:18:54;;;;;;;;;;;;;;;13.92;100.00;102299.59;4992355;28;19933;-35
2022/06/04 06:21:23;;;;;;;;;;;;;;;14.01;100.00;102304.31;4992724;28;20056;-33
2022/06/04 06:23:52;;;;;;;;;;;;;;;14.12;100.00;102320.00;4993093;28;19926;-31
2022/06/04 06:26:22;;;;;;;;;;;;;;;14.22;100.00;102312.63;4992105;28;19940;-34
2022/06/04 06:28:50;;;;;;;;;;;;;;;14.41;100.00;102313.69;4992491;28;19931;-34
2022/06/04 06:31:19;;;;;;;;;;;;;;;14.68;100.00;102313.25;4993074;28;19989;-31
2022/06/04 06:33:47;;;;;;;;;;;;;;;15.00;100.00;102316.38;4991675;28;19922;-38
2022/06/04 06:36:16;;;;;;;;;;;;;;;15.37;100.00;102324.22;4992464;28;19922;-33
2022/06/04 06:38:45;;;;;;;;;;;;;;;15.71;96.55;102324.19;4991430;28;19922;-33
2022/06/04 06:41:15;;;;;;;;;;;;;;;16.13;96.45;102329.03;4991952;28;19926;-32
2022/06/04 06:43:46;;;;;;;;;;;;;;;16.64;92.59;102333.13;4992461;28;19925;-37
2022/06/04 06:46:15;;;;;;;;;;;;;;;17.04;87.73;102326.88;4991512;28;20368;-37
2022/06/04 06:48:44;;;;;;;;;;;;;;;17.39;84.74;102319.75;4992172;28;19933;-31
2022/06/04 06:51:15;;;;;;;;;;;;;;;17.81;85.24;102324.38;4991923;28;19921;-36
2022/06/04 06:53:42;;;;;;;;;;;;;;;18.29;78.92;102328.75;4991200;28;19931;-34
2022/06/04 06:56:11;;;;;;;;;;;;;;;18.63;77.65;102323.47;4992324;28;19936;-40
2022/06/04 06:58:41;;;;;;;;;;;;;;;19.24;79.51;102330.47;4993006;28;20268;-39
2022/06/04 07:01:09;;;;;;;;;;;;;;;19.60;67.11;102325.56;4991946;28;20000;-33
2022/06/04 07:03:37;;;;;;;;;;;;;;;19.70;67.36;102332.13;4993096;28;19922;-40
2022/06/04 07:06:07;;;;;;;;;;;;;;;19.93;68.99;102337.41;4992424;28;20020;-35
2022/06/04 07:08:35;;;;;;;;;;;;;;;20.37;67.87;102327.09;4992793;28;19921;-40
2022/06/04 07:11:03;;;;;;;;;;;;;;;20.82;66.52;102333.31;4993031;28;20020;-36
2022/06/04 07:13:31;;;;;;;;;;;;;;;20.90;62.24;102331.66;4992497;28;19931;-32
2022/06/04 07:16:00;;;;;;;;;;;;;;;20.81;62.85;102334.47;4991617;28;20272;-33
2022/06/04 07:18:28;;;;;;;;;;;;;;;20.59;59.78;102328.94;4993000;28;19953;-35
2022/06/04 07:20:56;;;;;;;;;;;;;;;20.55;60.05;102344.97;4992237;28;20029;-31
2022/06/04 07:23:24;;;;;;;;;;;;;;;20.71;62.28;102342.47;4992843;28;20299;-31
2022/06/04 07:25:52;;;;;;;;;;;;;;;21.22;62.66;102341.66;4993009;28;19972;-30
2022/06/04 07:28:20;;;;;;;;;;;;;;;21.78;58.15;102339.72;4991380;28;20025;-30
2022/06/04 07:30:48;;;;;;;;;;;;;;;22.05;56.89;102339.28;4991836;28;19949;-35
2022/06/04 07:33:17;;;;;;;;;;;;;;;21.91;53.38;102352.88;4992402;28;20430;-31
2022/06/04 07:35:48;;;;;;;;;;;;;;;21.72;53.09;102341.06;4991686;28;19922;-31
2022/06/04 07:38:16;;;;;;;;;;;;;;;21.33;54.57;102337.31;4993016;28;19929;-31
2022/06/04 07:40:44;;;;;;;;;;;;;;;21.11;56.53;102334.66;4992620;28;20302;-31
2022/06/04 07:43:12;;;;;;;;;;;;;;;21.04;57.39;102335.13;4991901;28;19922;-32
2022/06/04 07:45:40;;;;;;;;;;;;;;;21.21;59.13;102328.63;4992247;28;19921;-34
2022/06/04 07:48:08;;;;;;;;;;;;;;;21.31;56.98;102334.00;4992443;28;19976;-31
2022/06/04 07:50:38;;;;;;;;;;;;;;;21.35;56.91;102346.34;4991890;28;19922;-33
2022/06/04 07:53:06;;;;;;;;;;;;;;;21.59;55.82;102346.59;4992498;28;19932;-35
2022/06/04 07:55:38;;;;;;;;;;;;;;;21.91;56.78;102345.19;4992487;28;20296;-31
2022/06/04 07:58:05;;;;;;;;;;;;;;;22.31;53.32;102340.00;4991393;28;20446;-35
2022/06/04 08:00:37;;;;;;;;;;;;;;;22.68;53.69;102337.41;4992174;28;20275;-34
2022/06/04 08:03:05;;;;;;;;;;;;;;;23.14;52.74;102344.13;4991482;28;20363;-32
2022/06/04 08:05:33;;;;;;;;;;;;;;;23.50;48.88;102332.84;4992295;28;19928;-31
2022/06/04 08:08:10;;;;;;;;;;;;;;;23.42;47.92;102333.75;4991368;28;19977;-30
2022/06/04 08:10:37;;;;;;;;;;;;;;;23.55;48.91;102326.97;4990880;28;19928;-36
2022/06/04 08:13:06;;;;;;;;;;;;;;;23.74;47.79;102325.59;4992291;28;19921;-33
2022/06/04 08:15:33;;;;;;;;;;;;;;;23.64;45.56;102324.00;4991349;28;20378;-35
2022/06/04 08:18:01;;;;;;;;;;;;;;;23.73;48.14;102326.78;4992645;28;19941;-36
2022/06/04 08:20:29;;;;;;;;;;;;;;;23.85;45.77;102318.22;4995825;28;20615;-31
2022/06/04 08:22:56;;;;;;;;;;;;;;;23.87;47.23;102328.09;4995994;28;19929;-38
2022/06/04 08:25:25;;;;;;;;;;;;;;;23.94;47.22;102321.81;4994929;28;19925;-33
2022/06/04 08:27:53;;;;;;;;;;;;;;;24.01;46.15;102320.00;4995858;28;19936;-37
2022/06/04 08:30:20;;;;;;;;;;;;;;;23.91;46.23;102316.81;4995796;28;19922;-32
2022/06/04 08:32:48;;;;;;;;;;;;;;;23.70;46.78;102328.31;4995021;28;19921;-42
2022/06/04 08:35:16;;;;;;;;;;;;;;;23.78;48.91;102330.19;4995764;28;20393;-32
2022/06/04 08:37:44;;;;;;;;;;;;;;;24.03;48.46;102319.66;4994628;28;19928;-33
2022/06/04 08:40:22;;;;;;;;;;;;;;;24.23;44.33;102329.28;4994557;28;19921;-32
2022/06/04 08:42:58;;;;;;;;;;;;;;;24.19;44.37;102331.19;4995279;28;19922;-34
2022/06/04 08:45:26;;;;;;;;;;;;;;;23.90;45.53;102329.41;4994708;28;19922;-32
2022/06/04 08:47:53;;;;;;;;;;;;;;;23.39;44.85;102328.78;4995015;28;20386;-38
2022/06/04 08:50:22;;;;;;;;;;;;;;;23.17;49.09;102332.03;4995504;28;19952;-37
2022/06/04 08:52:52;;;;;;;;;;;;;;;23.24;47.14;102327.41;4994659;28;19937;-30
2022/06/04 08:58:27;;;;;;;;;;;;;;;23.31;46.96;102335.41;4995114;28;20028;-32
2022/06/04 09:00:57;;;;;;;;;;;;;;;23.42;46.23;102345.16;4994296;28;19921;-39
2022/06/04 09:03:30;;;;;;;;;;;;;;;23.58;48.22;102343.34;4995278;28;19926;-37
2022/06/04 09:06:03;;;;;;;;;;;;;;;23.79;47.53;102339.59;4995405;28;19921;-32
2022/06/04 09:08:37;;;;;;;;;;;;;;;23.97;46.22;102349.63;4994273;28;19940;-36
2022/06/04 09:11:10;;;;;;;;;;;;;;;24.02;45.19;102343.66;4995154;28;20012;-33
2022/06/04 09:13:43;;;;;;;;;;;;;;;23.93;44.19;102342.97;4994396;28;20363;-33
2022/06/04 09:16:19;;;;;;;;;;;;;;;23.82;45.33;102353.97;4994223;28;19925;-33
2022/06/04 09:18:49;;;;;;;;;;;;;;;23.52;45.43;102361.03;4994428;28;19928;-36
2022/06/04 09:21:16;;;;;;;;;;;;;;;23.16;46.70;102353.16;4993861;28;20016;-41
2022/06/04 09:23:46;;;;;;;;;;;;;;;23.10;48.17;102360.22;4994310;28;19922;-33
2022/06/04 09:26:24;;;;;;;;;;;;;;;23.30;48.65;102362.22;4994778;28;19929;-37
2022/06/04 09:28:59;;;;;;;;;;;;;;;23.35;46.18;102364.88;4993037;28;19932;-32
2022/06/04 09:31:33;;;;;;;;;;;;;;;23.29;47.03;102363.41;4994766;28;19994;-35
2022/06/04 09:34:03;;;;;;;;;;;;;;;23.55;47.79;102361.16;4994687;28;19961;-37
2022/06/04 09:36:31;;;;;;;;;;;;;;;24.06;46.97;102358.88;4994320;28;20283;-33
2022/06/04 09:39:00;;;;;;;;;;;;;;;23.96;44.74;102365.91;4994910;28;19922;-40
2022/06/04 09:41:29;;;;;;;;;;;;;;;23.86;46.19;102369.19;4993514;28;20023;-38
2022/06/04 09:44:03;;;;;;;;;;;;;;;23.73;43.69;102366.69;4994100;28;19922;-32
2022/06/04 09:46:31;;;;;;;;;;;;;;;23.94;44.52;102367.44;4992912;28;20402;-33
2022/06/04 09:49:01;;;;;;;;;;;;;;;24.38;44.56;102372.22;4993677;28;19944;-41
2022/06/04 09:51:30;;;;;;;;;;;;;;;24.87;44.46;102355.06;4994273;28;19968;-32
2022/06/04 09:54:02;;;;;;;;;;;;;;;25.00;41.94;102373.84;4994472;28;19928;-37
2022/06/04 09:56:32;;;;;;;;;;;;;;;24.95;41.55;102376.97;4992933;28;20020;-34
2022/06/04 09:59:18;;;;;;;;;;;;;;;24.82;42.80;102381.00;4993878;28;19929;-36
2022/06/04 10:01:59;;;;;;;;;;;;;;;24.90;43.08;102377.19;4993178;28;20131;-32
2022/06/04 10:04:40;;;;;;;;;;;;;;;25.24;44.25;102386.38;4992268;28;20272;-37
2022/06/04 10:07:09;;;;;;;;;;;;;;;25.52;42.06;102386.41;4991138;28;20351;-30
2022/06/04 10:09:57;;;;;;;;;;;;;;;25.64;41.60;102383.50;4992082;28;19979;-31
2022/06/04 10:13:42;;;;;;;;;;;;;;;25.76;40.52;102388.34;4992904;28;19928;-31
2022/06/04 10:15:26;;;;;;;;;;;;;;;25.82;40.30;102378.28;4992629;28;19921;-33
2022/06/04 10:18:01;;;;;;;;;;;;;;;25.82;41.34;102389.72;4991789;28;19936;-31
2022/06/04 10:20:29;;;;;;;;;;;;;;;25.79;40.17;102379.00;4992372;28;19932;-33
2022/06/04 10:22:57;;;;;;;;;;;;;;;25.80;40.16;102380.66;4993655;28;19929;-36
2022/06/04 10:25:29;;;;;;;;;;;;;;;25.65;39.66;102379.44;4992434;28;20379;-31
2022/06/04 10:28:03;;;;;;;;;;;;;;;25.57;40.52;102377.56;4993695;28;19928;-30
2022/06/04 10:30:36;;;;;;;;;;;;;;;25.63;40.21;102376.94;4993770;28;20638;-31
2022/06/04 10:33:14;;;;;;;;;;;;;;;25.53;38.83;102386.03;4993434;28;19928;-31
2022/06/04 10:35:49;;;;;;;;;;;;;;;25.29;39.67;102377.56;4993401;28;20048;-31
2022/06/04 10:38:24;;;;;;;;;;;;;;;24.98;40.31;102375.41;4992710;28;19929;-35
2022/06/04 10:41:01;;;;;;;;;;;;;;;24.55;41.21;102367.50;4993297;28;19932;-36
2022/06/04 10:43:56;;;;;;;;;;;;;;;23.78;43.19;102369.31;4993311;28;19944;-32
2022/06/04 10:46:31;;;;;;;;;;;;;;;23.20;44.82;102369.16;4992866;28;20004;-32
2022/06/04 10:49:12;;;;;;;;;;;;;;;22.64;46.34;102367.75;4993182;28;19996;-31
2022/06/04 10:51:48;;;;;;;;;;;;;;;22.10;47.58;102372.41;4992661;28;19922;-31
2022/06/04 10:54:21;;;;;;;;;;;;;;;21.67;50.31;102365.66;4993234;28;20398;-30
2022/06/04 10:56:53;;;;;;;;;;;;;;;21.42;51.29;102369.38;4993193;28;19929;-34
2022/06/04 10:59:23;;;;;;;;;;;;;;;21.14;51.88;102374.56;4992260;28;19925;-31
2022/06/04 11:01:55;;;;;;;;;;;;;;;20.98;53.71;102364.88;4993207;28;20299;-38
2022/06/04 11:04:31;;;;;;;;;;;;;;;20.99;56.10;102366.53;4993096;28;19926;-35
2022/06/04 11:07:09;;;;;;;;;;;;;;;21.19;54.29;102365.00;4992169;28;19922;-29
2022/06/04 11:09:38;;;;;;;;;;;;;;;21.22;53.15;102368.06;4992945;28;19944;-32
2022/06/04 11:12:15;;;;;;;;;;;;;;;21.16;52.16;102371.38;4993023;28;19925;-28
2022/06/04 11:14:45;;;;;;;;;;;;;;;21.14;52.83;102365.22;4992180;28;19922;-27
2022/06/04 11:17:17;;;;;;;;;;;;;;;21.06;53.17;102368.88;4992643;28;19922;-27
2022/06/04 11:19:52;;;;;;;;;;;;;;;20.93;53.23;102365.88;4992762;28;19944;-34
2022/06/04 11:22:23;;;;;;;;;;;;;;;20.86;53.17;102368.38;4992576;28;19922;-28
2022/06/04 11:24:53;;;;;;;;;;;;;;;20.82;54.33;102373.03;4992240;28;20016;-28
2022/06/04 11:27:23;;;;;;;;;;;;;;;20.87;54.04;102366.34;4992111;28;19921;-28
2022/06/04 11:29:52;;;;;;;;;;;;;;;21.01;54.39;102369.03;4992661;28;19922;-29
2022/06/04 11:32:24;;;;;;;;;;;;;;;21.16;53.58;102371.38;4992327;28;19922;-32
2022/06/04 11:35:11;;;;;;;;;;;;;;;21.45;52.74;102360.19;4991654;28;19921;-35
2022/06/04 11:37:45;;;;;;;;;;;;;;;21.59;51.70;102369.34;4992302;28;19922;-30
2022/06/04 11:40:19;;;;;;;;;;;;;;;21.58;51.63;102378.22;4992235;28;20020;-30
2022/06/04 11:42:52;;;;;;;;;;;;;;;21.47;50.92;102385.41;4991766;28;20268;-31
2022/06/04 11:45:35;;;;;;;;;;;;;;;21.44;51.40;102366.19;4992242;28;20298;-33
2022/06/04 11:48:12;;;;;;;;;;;;;;;21.39;52.12;102378.56;4990250;28;19925;-33
2022/06/04 11:50:45;;;;;;;;;;;;;;;21.40;52.57;102376.56;4992413;28;19929;-28
2022/06/04 11:53:20;;;;;;;;;;;;;;;21.77;52.23;102375.84;4990720;28;20367;-31
2022/06/04 11:55:52;;;;;;;;;;;;;;;21.95;50.50;102388.81;4991047;28;20498;-29
2022/06/04 11:58:24;;;;;;;;;;;;;;;21.97;50.87;102382.78;4992494;28;19979;-27
2022/06/04 12:00:52;;;;;;;;;;;;;;;22.04;51.32;102385.97;4992275;28;19976;-32
2022/06/04 12:03:25;;;;;;;;;;;;;;;22.24;51.49;102388.03;4991683;28;20371;-31
2022/06/04 12:05:59;;;;;;;;;;;;;;;22.42;50.40;102390.81;4992363;28;20037;-36
2022/06/04 12:08:29;;;;;;;;;;;;;;;22.22;49.85;102393.25;4992348;28;19922;-41
2022/06/04 12:11:05;;;;;;;;;;;;;;;21.97;50.03;102397.00;4991307;28;20466;-34
2022/06/04 12:13:35;;;;;;;;;;;;;;;21.81;50.77;102379.66;4992072;28;19928;-37
2022/06/04 12:16:10;;;;;;;;;;;;;;;21.64;51.37;102389.06;4991847;28;19929;-36
2022/06/04 12:18:44;;;;;;;;;;;;;;;21.48;52.74;102381.41;4991773;28;19926;-30
2022/06/04 12:24:20;;;;;;;;;;;;;;;21.33;51.53;102373.41;4991364;28;19922;-30
2022/06/04 12:26:48;;;;;;;;;;;;;;;21.24;52.48;102384.75;4992287;28;19953;-33
2022/06/04 12:29:24;;;;;;;;;;;;;;;21.18;53.36;102386.88;4992118;28;19925;-30
2022/06/04 12:31:56;;;;;;;;;;;;;;;20.96;53.62;102382.25;4991915;28;19949;-36
2022/06/04 12:34:27;;;;;;;;;;;;;;;20.83;54.52;102374.69;4992092;28;19995;-30
2022/06/04 12:36:55;;;;;;;;;;;;;;;20.69;54.43;102379.69;4991954;28;20008;-29
2022/06/04 12:39:24;;;;;;;;;;;;;;;20.56;56.22;102380.69;4991096;28;20377;-34
2022/06/04 12:41:54;;;;;;;;;;;;;;;20.52;55.95;102385.34;4991925;28;19949;-31
2022/06/04 12:44:23;;;;;;;;;;;;;;;20.45;55.45;102384.97;4991482;28;19921;-30
2022/06/04 12:46:52;;;;;;;;;;;;;;;20.26;55.45;102391.72;4991816;28;20347;-32
2022/06/04 12:49:29;;;;;;;;;;;;;;;20.14;56.74;102382.19;4991782;28;19921;-31
2022/06/04 12:52:00;;;;;;;;;;;;;;;20.00;57.53;102381.41;4990207;28;19948;-30
2022/06/04 12:54:37;;;;;;;;;;;;;;;19.97;57.88;102370.78;4990824;28;19921;-30
2022/06/04 12:57:14;;;;;;;;;;;;;;;20.01;58.34;102377.44;4991224;28;19933;-30
2022/06/04 12:59:44;;;;;;;;;;;;;;;20.01;58.71;102380.25;4990839;28;20379;-30
2022/06/04 13:02:26;;;;;;;;;;;;;;;19.99;58.76;102374.91;4991577;28;19921;-34
2022/06/04 13:05:06;;;;;;;;;;;;;;;19.82;58.97;102372.00;4995026;28;19922;-36
2022/06/04 13:07:39;;;;;;;;;;;;;;;19.62;59.73;102373.41;4994342;28;19928;-30